Red Scaffold, South Dakota
Current Conditions -  °F | °C
As of 2:55 AM on Friday 31 Oct 2014 (Local Time) from KPHP Reporting Station
Overcast Overcast  
Wind Chill: 22°   Ceiling: 1300
Heat Index: 31°   Visibility: 10mi
Dew Point: 24°   Wind: 12mph
Humidity: 76%   Direction: 90°E
Pressure: 30.54"   Gusts: NA
Location:  44.534°N, 102.24°W
Report Text: KPHP 310855Z AUTO 09010KT 10SM OVC013 M01/M04 A3054 RMK AO2 SLP354 T10061044 50001
Loading
Personal Weather Stations






























Interactive Weather Map
Tropical Storm Tracking
New forecast layout! Learn more

10-Day Weather Forecast

Advertisements
Track Severe Weather on mobile